createdAt,value
2019-02-05T00:04:52.466Z,56.70
2019-02-05T00:10:01.017Z,56.70
2019-02-05T00:15:07.992Z,56.70
2019-02-05T00:20:12.919Z,57.30
2019-02-05T00:25:19.062Z,56.80
2019-02-05T00:30:26.620Z,56.80
2019-02-05T00:35:32.769Z,56.90
2019-02-05T00:40:41.013Z,56.90
2019-02-05T00:45:46.912Z,56.90
2019-02-05T00:50:55.449Z,57.00
2019-02-05T00:56:02.510Z,57.00
2019-02-05T01:01:15.429Z,57.10
2019-02-05T01:06:22.438Z,57.20
2019-02-05T01:11:29.276Z,57.30
2019-02-05T01:16:36.251Z,57.40
2019-02-05T01:21:43.823Z,57.30
2019-02-05T01:26:50.588Z,57.40
2019-02-05T01:31:55.752Z,57.40
2019-02-05T01:37:01.789Z,57.60
2019-02-05T01:42:08.498Z,57.60
2019-02-05T01:47:20.756Z,57.60
2019-02-05T01:52:27.754Z,57.70
2019-02-05T01:57:35.814Z,57.70
2019-02-05T02:02:43.217Z,57.70
2019-02-05T02:07:49.980Z,57.70
2019-02-05T02:12:56.802Z,57.70
2019-02-05T02:18:03.139Z,57.70
2019-02-05T02:23:08.328Z,57.80
2019-02-05T02:28:13.922Z,57.80
2019-02-05T02:33:20.387Z,57.80
2019-02-05T02:38:26.761Z,57.90
2019-02-05T02:43:33.568Z,57.80
2019-02-05T02:48:40.942Z,58.40
2019-02-05T02:53:48.239Z,57.90
2019-02-05T02:58:55.312Z,57.90
2019-02-05T03:04:02.465Z,57.80
2019-02-05T03:09:11.187Z,57.80
2019-02-05T03:14:20.720Z,57.80
2019-02-05T03:19:28.898Z,57.90
2019-02-05T03:24:37.997Z,57.90
2019-02-05T03:29:44.820Z,57.90
2019-02-05T03:34:51.394Z,58.00
2019-02-05T03:39:58.159Z,58.00
2019-02-05T03:45:05.927Z,58.00
2019-02-05T03:50:13.512Z,57.90
2019-02-05T03:55:59.553Z,58.00
2019-02-05T04:01:52.418Z,57.90
2019-02-05T04:07:38.913Z,58.00
2019-02-05T04:13:02.895Z,58.00
2019-02-05T04:18:50.390Z,58.00
2019-02-05T04:24:20.705Z,58.10
2019-02-05T04:30:04.944Z,58.20
2019-02-05T04:35:44.205Z,58.10
2019-02-05T04:41:19.522Z,58.10
2019-02-05T04:47:04.488Z,58.10
2019-02-05T04:52:42.063Z,58.10
2019-02-05T04:58:04.016Z,58.10
2019-02-05T05:04:04.370Z,58.20
2019-02-05T05:09:26.113Z,58.20
2019-02-05T05:14:37.104Z,58.20
2019-02-05T05:19:49.151Z,58.10
2019-02-05T05:24:56.400Z,58.20
2019-02-05T05:30:03.120Z,58.30
2019-02-05T05:35:09.814Z,58.20
2019-02-05T05:40:15.671Z,58.30
2019-02-05T05:45:21.888Z,58.30
2019-02-05T05:50:29.847Z,58.30
2019-02-05T05:55:36.212Z,58.40
2019-02-05T06:00:41.972Z,58.40
2019-02-05T06:05:47.960Z,58.40
2019-02-05T06:10:54.923Z,58.40
2019-02-05T06:16:01.669Z,58.40
2019-02-05T06:21:08.566Z,58.40
2019-02-05T06:26:13.948Z,58.40
2019-02-05T06:31:21.106Z,58.40
2019-02-05T06:36:26.768Z,58.50
2019-02-05T06:41:32.983Z,58.50
2019-02-05T06:46:39.888Z,58.50
2019-02-05T06:51:47.567Z,58.70
2019-02-05T06:56:55.202Z,58.70
2019-02-05T07:02:03.211Z,58.70
2019-02-05T07:07:10.876Z,58.70
2019-02-05T07:12:16.687Z,58.70
2019-02-05T07:17:23.287Z,58.60
2019-02-05T07:22:28.495Z,58.70
2019-02-05T07:27:37.321Z,58.70
2019-02-05T07:32:44.653Z,58.70
2019-02-05T07:37:50.531Z,58.80
2019-02-05T07:42:57.763Z,58.80
2019-02-05T07:48:03.557Z,58.90
2019-02-05T07:53:09.153Z,58.90
2019-02-05T07:58:16.794Z,58.90
2019-02-05T08:03:25.528Z,59.00
2019-02-05T08:08:32.475Z,58.90
2019-02-05T08:13:38.261Z,59.00
2019-02-05T08:18:44.161Z,58.90
2019-02-05T08:23:52.237Z,59.00
2019-02-05T08:28:59.055Z,59.00
2019-02-05T08:34:05.510Z,59.00
2019-02-05T08:39:12.351Z,59.10
2019-02-05T08:44:21.050Z,59.10
2019-02-05T08:49:26.784Z,59.20
2019-02-05T08:54:33.279Z,59.10
2019-02-05T08:59:41.011Z,59.10
2019-02-05T09:04:46.395Z,59.10
2019-02-05T09:09:54.016Z,59.10
2019-02-05T09:15:01.020Z,59.20
2019-02-05T09:20:09.148Z,59.10
2019-02-05T09:25:15.698Z,59.20
2019-02-05T09:30:26.555Z,59.30
2019-02-05T09:35:35.063Z,59.30
2019-02-05T09:40:41.696Z,59.20
2019-02-05T09:45:48.679Z,59.20
2019-02-05T09:50:57.678Z,59.30
2019-02-05T09:56:04.730Z,59.30
2019-02-05T10:01:10.215Z,59.30
2019-02-05T10:06:18.343Z,59.30
2019-02-05T10:11:24.195Z,59.40
2019-02-05T10:16:31.008Z,59.30
2019-02-05T10:21:41.353Z,59.30
2019-02-05T10:26:49.206Z,59.50
2019-02-05T10:31:55.751Z,59.40
2019-02-05T10:37:01.443Z,59.40
2019-02-05T10:42:09.351Z,59.30
2019-02-05T10:47:15.577Z,59.40
2019-02-05T10:52:23.558Z,59.40
2019-02-05T10:57:30.368Z,59.40
2019-02-05T11:02:39.788Z,59.40
2019-02-05T11:07:44.921Z,59.40
2019-02-05T11:12:51.213Z,59.40
2019-02-05T11:17:58.839Z,59.40
2019-02-05T11:23:05.487Z,59.40
2019-02-05T11:28:12.522Z,59.40
2019-02-05T11:33:17.807Z,59.40
2019-02-05T11:38:25.516Z,59.40
2019-02-05T11:43:32.367Z,59.50
2019-02-05T11:48:39.203Z,59.40
2019-02-05T11:53:46.294Z,59.40
2019-02-05T11:58:52.865Z,59.50
2019-02-05T12:03:59.439Z,59.50
2019-02-05T12:09:17.123Z,59.50
2019-02-05T12:14:22.958Z,59.50
2019-02-05T12:19:29.650Z,59.50
2019-02-05T12:24:35.616Z,59.60
2019-02-05T12:29:41.635Z,59.50
2019-02-05T12:34:50.871Z,59.60
2019-02-05T12:39:57.128Z,59.60
2019-02-05T12:45:04.018Z,59.70
2019-02-05T12:50:15.099Z,59.70
2019-02-05T12:55:22.011Z,59.70
2019-02-05T13:01:03.600Z,59.70
2019-02-05T13:06:16.695Z,60.50
2019-02-05T13:11:23.339Z,59.80
2019-02-05T13:16:30.787Z,59.70
2019-02-05T13:21:36.848Z,59.90
2019-02-05T13:26:44.657Z,59.90
2019-02-05T13:31:52.394Z,59.90
2019-02-05T13:37:00.139Z,59.90
2019-02-05T13:42:06.007Z,59.90
2019-02-05T13:47:14.330Z,59.90
2019-02-05T13:58:28.369Z,59.90
2019-02-05T14:03:35.239Z,60.00
2019-02-05T14:08:44.385Z,60.00
2019-02-05T14:13:50.450Z,59.90
2019-02-05T14:18:55.935Z,59.90
2019-02-05T14:24:02.873Z,59.90
2019-02-05T14:29:07.937Z,60.00
2019-02-05T14:34:14.971Z,59.90
2019-02-05T14:39:22.735Z,59.90
2019-02-05T14:44:27.941Z,59.90
2019-02-05T14:49:34.008Z,59.90
2019-02-05T14:54:39.273Z,60.00
2019-02-05T14:59:47.354Z,60.00
2019-02-05T15:04:54.679Z,60.80
2019-02-05T15:10:00.886Z,60.00
2019-02-05T15:15:11.074Z,60.00
2019-02-05T15:20:22.366Z,60.10
2019-02-05T15:25:29.713Z,60.20
2019-02-05T15:30:40.308Z,60.20
2019-02-05T15:35:52.548Z,60.20
2019-02-05T15:40:58.837Z,60.20
2019-02-05T15:46:04.670Z,60.30
2019-02-05T15:51:11.580Z,60.20
2019-02-05T15:56:16.703Z,60.20
2019-02-05T16:01:22.807Z,60.20
2019-02-05T16:06:28.603Z,60.20
2019-02-05T16:11:34.642Z,60.20
2019-02-05T16:16:41.615Z,60.20
2019-02-05T16:21:48.512Z,60.20
2019-02-05T16:26:54.611Z,60.20
2019-02-05T16:32:03.558Z,60.20
2019-02-05T16:37:10.114Z,60.30
2019-02-05T16:42:16.331Z,61.00
2019-02-05T16:47:24.473Z,60.40
2019-02-05T16:52:30.515Z,60.30
2019-02-05T16:57:35.951Z,60.40
2019-02-05T17:02:42.703Z,61.10
2019-02-05T17:07:48.454Z,60.50
2019-02-05T17:12:54.491Z,60.40
2019-02-05T17:18:01.182Z,60.50
2019-02-05T17:23:08.776Z,61.40
2019-02-05T17:28:14.446Z,60.50
2019-02-05T17:33:20.126Z,60.50
2019-02-05T17:38:27.020Z,60.50
2019-02-05T17:43:33.480Z,60.50
2019-02-05T17:48:39.970Z,60.00
2019-02-05T17:53:46.431Z,61.30
2019-02-05T17:58:52.945Z,60.50
2019-02-05T18:03:58.684Z,60.40
2019-02-05T18:09:04.489Z,60.40
2019-02-05T18:14:09.779Z,60.40
2019-02-05T18:19:15.471Z,60.40
2019-02-05T18:24:22.718Z,60.30
2019-02-05T18:29:30.115Z,60.40
2019-02-05T18:34:37.603Z,61.00
2019-02-05T18:39:44.178Z,61.10
2019-02-05T18:44:55.643Z,60.30
2019-02-05T18:50:02.166Z,60.30
2019-02-05T18:55:10.519Z,60.30
2019-02-05T19:00:26.791Z,60.30
2019-02-05T19:05:34.314Z,60.40
2019-02-05T19:10:40.216Z,60.20
2019-02-05T19:15:47.421Z,60.30
2019-02-05T19:20:54.014Z,60.30
2019-02-05T19:26:08.656Z,61.10
2019-02-05T19:31:31.263Z,60.30
2019-02-05T19:36:39.627Z,60.30
2019-02-05T19:41:49.115Z,60.30
2019-02-05T19:47:03.290Z,60.20
2019-02-05T19:52:10.987Z,60.30
2019-02-05T19:57:17.822Z,60.20
2019-02-05T20:02:24.120Z,60.30
2019-02-05T20:07:31.555Z,60.30
2019-02-05T20:12:38.783Z,60.20
2019-02-05T20:17:45.014Z,60.30
2019-02-05T20:22:51.064Z,61.10
2019-02-05T20:27:58.209Z,60.40
2019-02-05T20:33:03.562Z,60.40
2019-02-05T20:38:11.239Z,60.20
2019-02-05T20:43:16.780Z,60.30
2019-02-05T20:48:23.437Z,60.20
2019-02-05T20:53:31.091Z,60.20
2019-02-05T20:58:37.379Z,60.10
2019-02-05T21:03:45.572Z,60.10
2019-02-05T21:08:53.390Z,60.00
2019-02-05T21:14:00.909Z,60.00
2019-02-05T21:19:08.395Z,60.00
2019-02-05T21:24:14.760Z,59.90
2019-02-05T21:29:22.020Z,59.90
2019-02-05T21:34:28.235Z,59.80
2019-02-05T21:39:34.911Z,59.80
2019-02-05T21:44:42.107Z,59.80
2019-02-05T21:49:48.282Z,59.80
2019-02-05T21:54:55.286Z,59.90
2019-02-05T22:00:01.720Z,59.80
2019-02-05T22:05:09.684Z,59.80
2019-02-05T22:10:16.237Z,59.80
2019-02-05T22:15:24.409Z,59.70
2019-02-05T22:20:32.646Z,59.80
2019-02-05T22:25:40.045Z,59.80
2019-02-05T22:30:48.936Z,59.80
2019-02-05T22:35:56.202Z,59.80
2019-02-05T22:41:02.171Z,59.90
2019-02-05T22:46:09.058Z,59.90
2019-02-05T22:51:16.454Z,59.90
2019-02-05T22:56:23.641Z,59.90
2019-02-05T23:01:56.127Z,59.90
2019-02-05T23:07:38.376Z,59.90
2019-02-05T23:12:53.938Z,59.90
2019-02-05T23:18:00.140Z,59.90
2019-02-05T23:23:07.081Z,59.90
2019-02-05T23:28:13.204Z,60.60
2019-02-05T23:33:19.526Z,59.80
2019-02-05T23:38:29.730Z,59.70
2019-02-05T23:43:33.825Z,59.80
2019-02-05T23:48:41.073Z,59.90
2019-02-05T23:53:48.512Z,59.80
2019-02-05T23:58:55.866Z,59.80
